sensor_id;sensor_type;location;lat;lon;timestamp;pressure;altitude;pressure_sealevel;temperature;humidity
76794;BME280;65745;50.278;18.192;2023-05-10T00:02:01;99862.98;;;7.33;57.58
76794;BME280;65745;50.278;18.192;2023-05-10T00:04:33;99858.02;;;7.33;58.07
76794;BME280;65745;50.278;18.192;2023-05-10T00:07:06;99855.78;;;7.32;59.30
76794;BME280;65745;50.278;18.192;2023-05-10T00:09:38;99855.70;;;7.30;59.67
76794;BME280;65745;50.278;18.192;2023-05-10T00:12:10;99851.35;;;7.28;59.48
76794;BME280;65745;50.278;18.192;2023-05-10T00:14:42;99848.11;;;7.22;60.10
76794;BME280;65745;50.278;18.192;2023-05-10T00:17:15;99850.66;;;7.17;60.71
76794;BME280;65745;50.278;18.192;2023-05-10T00:19:47;99845.61;;;7.14;59.28
76794;BME280;65745;50.278;18.192;2023-05-10T00:22:19;99846.52;;;7.11;61.16
76794;BME280;65745;50.278;18.192;2023-05-10T00:24:51;99847.04;;;7.11;61.00
76794;BME280;65745;50.278;18.192;2023-05-10T00:27:23;99845.67;;;7.11;60.13
76794;BME280;65745;50.278;18.192;2023-05-10T00:29:55;99844.89;;;7.13;60.88
76794;BME280;65745;50.278;18.192;2023-05-10T00:32:27;99839.97;;;7.14;59.68
76794;BME280;65745;50.278;18.192;2023-05-10T00:34:59;99845.11;;;7.15;59.28
76794;BME280;65745;50.278;18.192;2023-05-10T00:37:31;99845.64;;;7.15;59.27
76794;BME280;65745;50.278;18.192;2023-05-10T00:40:04;99842.66;;;7.13;59.94
76794;BME280;65745;50.278;18.192;2023-05-10T00:42:37;99840.77;;;7.08;60.56
76794;BME280;65745;50.278;18.192;2023-05-10T00:45:10;99839.95;;;7.03;59.56
76794;BME280;65745;50.278;18.192;2023-05-10T00:47:43;99839.00;;;7.01;59.87
76794;BME280;65745;50.278;18.192;2023-05-10T00:50:16;99835.50;;;6.98;60.26
76794;BME280;65745;50.278;18.192;2023-05-10T00:52:49;99837.71;;;6.93;61.25
76794;BME280;65745;50.278;18.192;2023-05-10T00:55:22;99833.02;;;6.91;60.58
76794;BME280;65745;50.278;18.192;2023-05-10T00:57:54;99828.77;;;6.86;59.96
76794;BME280;65745;50.278;18.192;2023-05-10T01:00:26;99828.80;;;6.83;61.35
76794;BME280;65745;50.278;18.192;2023-05-10T01:03:00;99827.98;;;6.78;60.77
76794;BME280;65745;50.278;18.192;2023-05-10T01:05:32;99824.36;;;6.77;60.45
76794;BME280;65745;50.278;18.192;2023-05-10T01:08:05;99826.55;;;6.76;60.20
76794;BME280;65745;50.278;18.192;2023-05-10T01:10:37;99825.30;;;6.75;61.19
76794;BME280;65745;50.278;18.192;2023-05-10T01:13:11;99821.63;;;6.72;60.42
76794;BME280;65745;50.278;18.192;2023-05-10T01:15:44;99821.03;;;6.75;60.50
76794;BME280;65745;50.278;18.192;2023-05-10T01:18:21;99818.89;;;6.77;61.03
76794;BME280;65745;50.278;18.192;2023-05-10T01:21:01;99820.42;;;6.83;60.22
76794;BME280;65745;50.278;18.192;2023-05-10T01:23:50;99814.14;;;6.84;61.46
76794;BME280;65745;50.278;18.192;2023-05-10T01:26:39;99815.52;;;6.85;60.12
76794;BME280;65745;50.278;18.192;2023-05-10T01:29:35;99815.45;;;6.88;60.55
76794;BME280;65745;50.278;18.192;2023-05-10T01:32:23;99814.54;;;6.86;61.02
76794;BME280;65745;50.278;18.192;2023-05-10T01:35:02;99814.41;;;6.82;60.40
76794;BME280;65745;50.278;18.192;2023-05-10T01:37:41;99814.77;;;6.82;60.16
76794;BME280;65745;50.278;18.192;2023-05-10T01:40:19;99818.56;;;6.83;60.13
76794;BME280;65745;50.278;18.192;2023-05-10T01:42:55;99815.73;;;6.81;61.02
76794;BME280;65745;50.278;18.192;2023-05-10T01:45:37;99817.11;;;6.81;60.15
76794;BME280;65745;50.278;18.192;2023-05-10T01:48:11;99813.62;;;6.79;60.95
76794;BME280;65745;50.278;18.192;2023-05-10T01:50:46;99809.27;;;6.77;60.67
76794;BME280;65745;50.278;18.192;2023-05-10T01:53:21;99809.55;;;6.75;60.84
76794;BME280;65745;50.278;18.192;2023-05-10T01:55:55;99810.34;;;6.72;60.59
76794;BME280;65745;50.278;18.192;2023-05-10T01:58:30;99808.23;;;6.71;60.69
76794;BME280;65745;50.278;18.192;2023-05-10T02:01:05;99808.45;;;6.68;60.87
76794;BME280;65745;50.278;18.192;2023-05-10T02:03:39;99805.25;;;6.65;60.87
76794;BME280;65745;50.278;18.192;2023-05-10T02:06:14;99799.34;;;6.61;60.65
76794;BME280;65745;50.278;18.192;2023-05-10T02:08:49;99801.59;;;6.57;60.71
76794;BME280;65745;50.278;18.192;2023-05-10T02:11:24;99797.84;;;6.53;61.61
76794;BME280;65745;50.278;18.192;2023-05-10T02:13:57;99800.43;;;6.48;62.88
76794;BME280;65745;50.278;18.192;2023-05-10T02:16:32;99800.48;;;6.45;61.70
76794;BME280;65745;50.278;18.192;2023-05-10T02:19:04;99795.98;;;6.44;61.37
76794;BME280;65745;50.278;18.192;2023-05-10T02:21:37;99797.45;;;6.42;60.95
76794;BME280;65745;50.278;18.192;2023-05-10T02:24:12;99798.41;;;6.39;61.01
76794;BME280;65745;50.278;18.192;2023-05-10T02:26:45;99799.89;;;6.38;61.80
76794;BME280;65745;50.278;18.192;2023-05-10T02:29:20;99797.89;;;6.39;62.17
76794;BME280;65745;50.278;18.192;2023-05-10T02:31:55;99794.59;;;6.43;62.42
76794;BME280;65745;50.278;18.192;2023-05-10T02:34:28;99795.23;;;6.47;62.38
76794;BME280;65745;50.278;18.192;2023-05-10T02:37:03;99795.68;;;6.50;62.24
76794;BME280;65745;50.278;18.192;2023-05-10T02:39:36;99798.20;;;6.54;61.46
76794;BME280;65745;50.278;18.192;2023-05-10T02:42:11;99798.67;;;6.52;62.64
76794;BME280;65745;50.278;18.192;2023-05-10T02:44:47;99802.52;;;6.39;63.01
76794;BME280;65745;50.278;18.192;2023-05-10T02:47:20;99799.06;;;6.34;63.07
76794;BME280;65745;50.278;18.192;2023-05-10T02:49:53;99799.37;;;6.33;62.30
76794;BME280;65745;50.278;18.192;2023-05-10T02:52:29;99802.17;;;6.34;61.93
76794;BME280;65745;50.278;18.192;2023-05-10T02:55:04;99800.59;;;6.23;64.40
76794;BME280;65745;50.278;18.192;2023-05-10T02:57:40;99801.59;;;6.18;62.96
76794;BME280;65745;50.278;18.192;2023-05-10T03:00:14;99803.38;;;6.06;64.06
76794;BME280;65745;50.278;18.192;2023-05-10T03:02:47;99802.89;;;5.93;62.55
76794;BME280;65745;50.278;18.192;2023-05-10T03:05:19;99803.38;;;5.79;62.40
76794;BME280;65745;50.278;18.192;2023-05-10T03:07:52;99799.38;;;5.73;62.50
76794;BME280;65745;50.278;18.192;2023-05-10T03:10:27;99803.54;;;5.70;62.81
76794;BME280;65745;50.278;18.192;2023-05-10T03:13:06;99795.70;;;5.66;62.79
76794;BME280;65745;50.278;18.192;2023-05-10T03:15:47;99799.14;;;5.57;63.37
76794;BME280;65745;50.278;18.192;2023-05-10T03:18:23;99800.52;;;5.53;63.90
76794;BME280;65745;50.278;18.192;2023-05-10T03:21:00;99804.94;;;5.39;65.28
76794;BME280;65745;50.278;18.192;2023-05-10T03:23:38;99802.61;;;5.32;63.60
76794;BME280;65745;50.278;18.192;2023-05-10T03:26:16;99801.42;;;5.32;63.47
76794;BME280;65745;50.278;18.192;2023-05-10T03:28:49;99799.94;;;5.29;63.32
76794;BME280;65745;50.278;18.192;2023-05-10T03:31:22;99796.96;;;5.32;63.20
76794;BME280;65745;50.278;18.192;2023-05-10T03:33:54;99794.87;;;5.35;62.88
76794;BME280;65745;50.278;18.192;2023-05-10T03:36:29;99794.83;;;5.39;63.42
76794;BME280;65745;50.278;18.192;2023-05-10T03:39:01;99795.18;;;5.43;63.00
76794;BME280;65745;50.278;18.192;2023-05-10T03:41:34;99796.48;;;5.46;63.04
76794;BME280;65745;50.278;18.192;2023-05-10T03:44:06;99792.33;;;5.40;63.37
76794;BME280;65745;50.278;18.192;2023-05-10T03:46:38;99791.59;;;5.34;64.36
76794;BME280;65745;50.278;18.192;2023-05-10T03:49:11;99793.92;;;5.29;63.77
76794;BME280;65745;50.278;18.192;2023-05-10T03:51:44;99791.96;;;5.26;63.52
76794;BME280;65745;50.278;18.192;2023-05-10T03:54:16;99791.79;;;5.31;62.98
76794;BME280;65745;50.278;18.192;2023-05-10T03:56:49;99791.41;;;5.30;63.75
76794;BME280;65745;50.278;18.192;2023-05-10T03:59:22;99791.42;;;5.35;64.04
76794;BME280;65745;50.278;18.192;2023-05-10T04:01:54;99788.52;;;5.35;65.04
76794;BME280;65745;50.278;18.192;2023-05-10T04:04:27;99787.42;;;5.37;64.90
76794;BME280;65745;50.278;18.192;2023-05-10T04:07:01;99790.14;;;5.46;64.75
76794;BME280;65745;50.278;18.192;2023-05-10T04:09:33;99786.84;;;5.53;66.55
76794;BME280;65745;50.278;18.192;2023-05-10T04:12:06;99786.90;;;5.64;65.18
76794;BME280;65745;50.278;18.192;2023-05-10T04:14:40;99788.11;;;5.73;65.68
76794;BME280;65745;50.278;18.192;2023-05-10T04:17:12;99786.58;;;5.78;65.84
76794;BME280;65745;50.278;18.192;2023-05-10T04:19:44;99784.58;;;5.83;66.97
76794;BME280;65745;50.278;18.192;2023-05-10T04:22:17;99785.30;;;5.89;67.32
76794;BME280;65745;50.278;18.192;2023-05-10T04:24:49;99781.48;;;6.01;66.53
76794;BME280;65745;50.278;18.192;2023-05-10T04:27:21;99780.55;;;6.18;66.82
76794;BME280;65745;50.278;18.192;2023-05-10T04:29:53;99781.80;;;6.34;66.83
76794;BME280;65745;50.278;18.192;2023-05-10T04:32:25;99779.78;;;6.50;66.63
76794;BME280;65745;50.278;18.192;2023-05-10T04:34:57;99782.02;;;6.61;66.87
76794;BME280;65745;50.278;18.192;2023-05-10T04:37:30;99779.92;;;6.74;65.60
76794;BME280;65745;50.278;18.192;2023-05-10T04:40:02;99783.05;;;6.86;65.48
76794;BME280;65745;50.278;18.192;2023-05-10T04:42:34;99785.46;;;6.97;66.23
76794;BME280;65745;50.278;18.192;2023-05-10T04:45:08;99783.57;;;7.07;65.29
76794;BME280;65745;50.278;18.192;2023-05-10T04:47:41;99783.06;;;7.18;65.40
76794;BME280;65745;50.278;18.192;2023-05-10T04:50:13;99785.54;;;7.32;64.60
76794;BME280;65745;50.278;18.192;2023-05-10T04:52:46;99784.71;;;7.44;64.90
76794;BME280;65745;50.278;18.192;2023-05-10T04:55:18;99784.47;;;7.54;65.17
76794;BME280;65745;50.278;18.192;2023-05-10T04:57:51;99783.87;;;7.61;65.45
76794;BME280;65745;50.278;18.192;2023-05-10T05:00:23;99780.71;;;7.77;65.11
76794;BME280;65745;50.278;18.192;2023-05-10T05:02:55;99777.38;;;7.92;64.76
76794;BME280;65745;50.278;18.192;2023-05-10T05:05:28;99776.33;;;8.09;64.19
76794;BME280;65745;50.278;18.192;2023-05-10T05:08:00;99776.19;;;8.29;64.14
76794;BME280;65745;50.278;18.192;2023-05-10T05:10:32;99774.84;;;8.48;63.73
76794;BME280;65745;50.278;18.192;2023-05-10T05:13:04;99772.41;;;8.67;63.20
76794;BME280;65745;50.278;18.192;2023-05-10T05:15:37;99770.64;;;8.85;63.25
76794;BME280;65745;50.278;18.192;2023-05-10T05:18:09;99773.84;;;9.04;62.83
76794;BME280;65745;50.278;18.192;2023-05-10T05:20:41;99773.98;;;9.25;62.86
76794;BME280;65745;50.278;18.192;2023-05-10T05:23:14;99773.39;;;9.44;62.26
76794;BME280;65745;50.278;18.192;2023-05-10T05:25:46;99775.02;;;9.63;61.89
76794;BME280;65745;50.278;18.192;2023-05-10T05:28:18;99777.04;;;9.78;60.88
76794;BME280;65745;50.278;18.192;2023-05-10T05:30:52;99779.94;;;9.94;60.18
76794;BME280;65745;50.278;18.192;2023-05-10T05:33:27;99781.61;;;10.08;59.84
76794;BME280;65745;50.278;18.192;2023-05-10T05:36:01;99775.85;;;10.20;59.07
76794;BME280;65745;50.278;18.192;2023-05-10T05:38:34;99776.92;;;10.31;58.52
76794;BME280;65745;50.278;18.192;2023-05-10T05:41:07;99777.67;;;10.43;58.08
76794;BME280;65745;50.278;18.192;2023-05-10T05:43:43;99774.82;;;10.57;58.38
76794;BME280;65745;50.278;18.192;2023-05-10T05:46:15;99774.76;;;10.73;58.04
76794;BME280;65745;50.278;18.192;2023-05-10T05:48:48;99773.67;;;10.90;57.97
76794;BME280;65745;50.278;18.192;2023-05-10T05:51:21;99767.44;;;11.09;57.46
76794;BME280;65745;50.278;18.192;2023-05-10T05:53:54;99768.57;;;11.27;56.76
76794;BME280;65745;50.278;18.192;2023-05-10T05:56:29;99767.63;;;11.45;56.45
76794;BME280;65745;50.278;18.192;2023-05-10T05:59:01;99768.66;;;11.58;55.43
76794;BME280;65745;50.278;18.192;2023-05-10T06:01:35;99762.83;;;11.72;55.81
76794;BME280;65745;50.278;18.192;2023-05-10T06:04:11;99764.67;;;11.94;55.42
76794;BME280;65745;50.278;18.192;2023-05-10T06:06:43;99760.61;;;12.14;54.53
76794;BME280;65745;50.278;18.192;2023-05-10T06:09:18;99761.27;;;12.28;54.08
76794;BME280;65745;50.278;18.192;2023-05-10T06:11:50;99760.60;;;12.47;53.98
76794;BME280;65745;50.278;18.192;2023-05-10T06:14:23;99760.23;;;12.63;53.49
76794;BME280;65745;50.278;18.192;2023-05-10T06:16:55;99758.85;;;12.80;53.23
76794;BME280;65745;50.278;18.192;2023-05-10T06:19:28;99759.17;;;12.99;53.10
76794;BME280;65745;50.278;18.192;2023-05-10T06:22:00;99760.74;;;13.20;52.40
76794;BME280;65745;50.278;18.192;2023-05-10T06:24:33;99761.73;;;13.38;52.59
76794;BME280;65745;50.278;18.192;2023-05-10T06:27:05;99763.58;;;13.58;51.74
76794;BME280;65745;50.278;18.192;2023-05-10T06:29:38;99757.77;;;13.71;51.08
76794;BME280;65745;50.278;18.192;2023-05-10T06:32:10;99759.23;;;13.91;50.92
76794;BME280;65745;50.278;18.192;2023-05-10T06:34:42;99759.11;;;14.05;50.60
76794;BME280;65745;50.278;18.192;2023-05-10T06:37:15;99761.77;;;14.21;50.62
76794;BME280;65745;50.278;18.192;2023-05-10T06:39:47;99762.32;;;14.32;48.91
76794;BME280;65745;50.278;18.192;2023-05-10T06:42:20;99762.53;;;14.39;48.40
76794;BME280;65745;50.278;18.192;2023-05-10T06:44:52;99762.56;;;14.52;48.10
76794;BME280;65745;50.278;18.192;2023-05-10T06:47:24;99761.19;;;14.62;47.92
76794;BME280;65745;50.278;18.192;2023-05-10T06:49:56;99759.30;;;14.73;47.77
76794;BME280;65745;50.278;18.192;2023-05-10T06:52:28;99765.03;;;14.92;48.35
76794;BME280;65745;50.278;18.192;2023-05-10T06:55:01;99762.95;;;15.06;47.84
76794;BME280;65745;50.278;18.192;2023-05-10T06:57:34;99763.27;;;15.22;46.93
76794;BME280;65745;50.278;18.192;2023-05-10T07:00:08;99762.23;;;15.30;47.18
76794;BME280;65745;50.278;18.192;2023-05-10T07:02:41;99762.05;;;15.37;46.49
76794;BME280;65745;50.278;18.192;2023-05-10T07:05:14;99753.70;;;15.43;46.37
76794;BME280;65745;50.278;18.192;2023-05-10T07:07:47;99750.07;;;15.53;46.42
76794;BME280;65745;50.278;18.192;2023-05-10T07:10:19;99750.23;;;15.57;45.73
76794;BME280;65745;50.278;18.192;2023-05-10T07:12:52;99745.02;;;15.55;45.32
76794;BME280;65745;50.278;18.192;2023-05-10T07:15:24;99741.02;;;15.59;44.96
76794;BME280;65745;50.278;18.192;2023-05-10T07:17:56;99738.91;;;15.69;45.20
76794;BME280;65745;50.278;18.192;2023-05-10T07:20:29;99739.54;;;15.86;45.00
76794;BME280;65745;50.278;18.192;2023-05-10T07:23:01;99740.52;;;16.01;44.71
76794;BME280;65745;50.278;18.192;2023-05-10T07:25:33;99744.48;;;16.07;44.30
76794;BME280;65745;50.278;18.192;2023-05-10T07:28:06;99739.38;;;16.18;44.71
76794;BME280;65745;50.278;18.192;2023-05-10T07:30:38;99741.02;;;16.39;44.38
76794;BME280;65745;50.278;18.192;2023-05-10T07:33:12;99738.20;;;16.45;43.35
76794;BME280;65745;50.278;18.192;2023-05-10T07:35:45;99736.95;;;16.49;43.74
76794;BME280;65745;50.278;18.192;2023-05-10T07:38:17;99733.94;;;16.57;43.51
76794;BME280;65745;50.278;18.192;2023-05-10T07:40:49;99733.92;;;16.58;43.12
76794;BME280;65745;50.278;18.192;2023-05-10T07:43:22;99732.51;;;16.62;42.47
76794;BME280;65745;50.278;18.192;2023-05-10T07:45:54;99722.30;;;16.54;42.61
76794;BME280;65745;50.278;18.192;2023-05-10T07:48:28;99726.42;;;16.65;42.80
76794;BME280;65745;50.278;18.192;2023-05-10T07:51:01;99732.42;;;16.76;42.50
76794;BME280;65745;50.278;18.192;2023-05-10T07:53:33;99724.36;;;16.84;42.73
76794;BME280;65745;50.278;18.192;2023-05-10T07:56:23;99723.80;;;17.07;42.54
76794;BME280;65745;50.278;18.192;2023-05-10T07:58:58;99726.70;;;17.14;42.03
76794;BME280;65745;50.278;18.192;2023-05-10T08:01:33;99719.91;;;17.31;42.29
76794;BME280;65745;50.278;18.192;2023-05-10T08:04:06;99723.66;;;17.55;41.85
76794;BME280;65745;50.278;18.192;2023-05-10T08:06:38;99727.11;;;17.58;41.50
76794;BME280;65745;50.278;18.192;2023-05-10T08:09:11;99722.33;;;17.69;41.36
76794;BME280;65745;50.278;18.192;2023-05-10T08:11:43;99714.89;;;17.78;41.36
76794;BME280;65745;50.278;18.192;2023-05-10T08:14:15;99721.60;;;17.98;41.19
76794;BME280;65745;50.278;18.192;2023-05-10T08:16:48;99727.75;;;18.07;40.60
76794;BME280;65745;50.278;18.192;2023-05-10T08:19:20;99720.89;;;18.12;40.35
76794;BME280;65745;50.278;18.192;2023-05-10T08:21:53;99721.14;;;18.32;40.19
76794;BME280;65745;50.278;18.192;2023-05-10T08:24:26;99724.42;;;18.34;39.97
76794;BME280;65745;50.278;18.192;2023-05-10T08:26:58;99721.05;;;18.39;40.00
76794;BME280;65745;50.278;18.192;2023-05-10T08:29:31;99726.81;;;18.49;40.23
76794;BME280;65745;50.278;18.192;2023-05-10T08:32:19;99728.33;;;18.53;39.70
76794;BME280;65745;50.278;18.192;2023-05-10T08:34:52;99726.63;;;18.50;39.36
76794;BME280;65745;50.278;18.192;2023-05-10T08:37:24;99723.42;;;18.43;39.64
76794;BME280;65745;50.278;18.192;2023-05-10T08:39:56;99730.73;;;18.57;39.71
76794;BME280;65745;50.278;18.192;2023-05-10T08:42:30;99731.55;;;18.72;39.62
76794;BME280;65745;50.278;18.192;2023-05-10T08:45:09;99729.35;;;18.68;39.26
76794;BME280;65745;50.278;18.192;2023-05-10T08:47:42;99732.95;;;18.71;39.62
76794;BME280;65745;50.278;18.192;2023-05-10T08:50:16;99724.55;;;18.73;39.30
76794;BME280;65745;50.278;18.192;2023-05-10T08:52:49;99725.48;;;18.80;39.77
76794;BME280;65745;50.278;18.192;2023-05-10T08:55:25;99723.89;;;18.81;39.36
76794;BME280;65745;50.278;18.192;2023-05-10T08:57:57;99726.48;;;18.83;39.37
76794;BME280;65745;50.278;18.192;2023-05-10T09:00:30;99730.08;;;18.98;39.52
76794;BME280;65745;50.278;18.192;2023-05-10T09:03:03;99723.38;;;19.01;38.76
76794;BME280;65745;50.278;18.192;2023-05-10T09:05:37;99717.13;;;19.09;39.24
76794;BME280;65745;50.278;18.192;2023-05-10T09:08:09;99729.95;;;19.35;38.48
76794;BME280;65745;50.278;18.192;2023-05-10T09:10:44;99718.38;;;19.27;38.60
76794;BME280;65745;50.278;18.192;2023-05-10T09:13:18;99723.75;;;19.39;38.54
76794;BME280;65745;50.278;18.192;2023-05-10T09:15:52;99720.34;;;19.45;38.45
76794;BME280;65745;50.278;18.192;2023-05-10T09:18:26;99719.08;;;19.65;38.26
76794;BME280;65745;50.278;18.192;2023-05-10T09:20:58;99714.90;;;19.81;38.20
76794;BME280;65745;50.278;18.192;2023-05-10T09:23:31;99716.58;;;20.02;37.48
76794;BME280;65745;50.278;18.192;2023-05-10T09:26:06;99718.71;;;20.16;37.95
76794;BME280;65745;50.278;18.192;2023-05-10T09:28:54;99714.39;;;20.21;37.15
76794;BME280;65745;50.278;18.192;2023-05-10T09:31:44;99716.55;;;20.18;36.97
76794;BME280;65745;50.278;18.192;2023-05-10T09:34:20;99712.91;;;20.09;37.21
76794;BME280;65745;50.278;18.192;2023-05-10T09:36:56;99707.73;;;20.30;37.08
76794;BME280;65745;50.278;18.192;2023-05-10T09:39:35;99713.80;;;20.41;37.17
76794;BME280;65745;50.278;18.192;2023-05-10T09:42:09;99711.52;;;20.64;36.97
76794;BME280;65745;50.278;18.192;2023-05-10T09:44:42;99719.26;;;20.62;35.80
76794;BME280;65745;50.278;18.192;2023-05-10T09:47:18;99718.77;;;20.74;36.23
76794;BME280;65745;50.278;18.192;2023-05-10T09:49:52;99709.55;;;20.94;35.90
76794;BME280;65745;50.278;18.192;2023-05-10T09:52:26;99710.50;;;20.91;35.19
76794;BME280;65745;50.278;18.192;2023-05-10T09:54:59;99708.33;;;21.21;36.03
76794;BME280;65745;50.278;18.192;2023-05-10T09:57:31;99710.92;;;21.09;34.90
76794;BME280;65745;50.278;18.192;2023-05-10T10:00:06;99714.34;;;20.84;35.63
76794;BME280;65745;50.278;18.192;2023-05-10T10:02:46;99704.29;;;20.80;35.71
76794;BME280;65745;50.278;18.192;2023-05-10T10:05:19;99706.63;;;20.49;36.07
76794;BME280;65745;50.278;18.192;2023-05-10T10:07:52;99698.29;;;20.53;36.05
76794;BME280;65745;50.278;18.192;2023-05-10T10:10:25;99692.65;;;20.62;36.00
76794;BME280;65745;50.278;18.192;2023-05-10T10:12:57;99687.18;;;21.19;35.55
76794;BME280;65745;50.278;18.192;2023-05-10T10:15:30;99683.91;;;21.55;35.44
76794;BME280;65745;50.278;18.192;2023-05-10T10:18:03;99690.98;;;21.59;35.51
76794;BME280;65745;50.278;18.192;2023-05-10T10:20:38;99687.70;;;21.76;34.96
76794;BME280;65745;50.278;18.192;2023-05-10T10:23:10;99685.14;;;22.33;33.91
76794;BME280;65745;50.278;18.192;2023-05-10T10:25:47;99686.66;;;22.56;32.67
76794;BME280;65745;50.278;18.192;2023-05-10T10:28:26;99684.66;;;22.25;33.24
76794;BME280;65745;50.278;18.192;2023-05-10T10:31:17;99679.59;;;22.42;32.74
76794;BME280;65745;50.278;18.192;2023-05-10T10:34:03;99679.05;;;22.42;33.77
76794;BME280;65745;50.278;18.192;2023-05-10T10:36:46;99683.21;;;22.21;33.69
76794;BME280;65745;50.278;18.192;2023-05-10T10:39:19;99679.88;;;22.15;33.44
76794;BME280;65745;50.278;18.192;2023-05-10T10:41:53;99679.24;;;21.90;33.61
76794;BME280;65745;50.278;18.192;2023-05-10T10:44:42;99675.41;;;22.18;33.36
76794;BME280;65745;50.278;18.192;2023-05-10T10:47:30;99671.63;;;22.60;32.77
76794;BME280;65745;50.278;18.192;2023-05-10T10:50:08;99673.81;;;22.35;32.76
76794;BME280;65745;50.278;18.192;2023-05-10T10:52:44;99672.29;;;21.94;32.61
76794;BME280;65745;50.278;18.192;2023-05-10T10:55:21;99665.73;;;21.60;32.95
76794;BME280;65745;50.278;18.192;2023-05-10T10:57:56;99667.69;;;21.40;33.01
76794;BME280;65745;50.278;18.192;2023-05-10T11:00:35;99669.84;;;21.19;33.45
76794;BME280;65745;50.278;18.192;2023-05-10T11:03:09;99670.06;;;21.30;33.84
76794;BME280;65745;50.278;18.192;2023-05-10T11:05:45;99665.67;;;21.68;33.49
76794;BME280;65745;50.278;18.192;2023-05-10T11:08:27;99666.80;;;21.59;32.89
76794;BME280;65745;50.278;18.192;2023-05-10T11:11:07;99664.55;;;21.94;32.39
76794;BME280;65745;50.278;18.192;2023-05-10T11:13:44;99665.25;;;22.50;32.05
76794;BME280;65745;50.278;18.192;2023-05-10T11:16:21;99656.97;;;22.40;32.01
76794;BME280;65745;50.278;18.192;2023-05-10T11:18:58;99660.90;;;22.22;32.01
76794;BME280;65745;50.278;18.192;2023-05-10T11:21:33;99658.42;;;22.00;32.30
76794;BME280;65745;50.278;18.192;2023-05-10T11:24:14;99656.86;;;22.27;32.10
76794;BME280;65745;50.278;18.192;2023-05-10T11:26:49;99652.15;;;22.85;31.18
76794;BME280;65745;50.278;18.192;2023-05-10T11:29:21;99643.70;;;23.41;30.58
76794;BME280;65745;50.278;18.192;2023-05-10T11:31:56;99646.42;;;23.77;30.16
76794;BME280;65745;50.278;18.192;2023-05-10T11:34:30;99648.19;;;23.48;30.49
76794;BME280;65745;50.278;18.192;2023-05-10T11:37:04;99649.88;;;23.35;30.12
76794;BME280;65745;50.278;18.192;2023-05-10T11:39:36;99648.64;;;23.01;30.42
76794;BME280;65745;50.278;18.192;2023-05-10T11:42:09;99645.41;;;22.72;30.60
76794;BME280;65745;50.278;18.192;2023-05-10T11:44:45;99652.05;;;22.46;31.23
76794;BME280;65745;50.278;18.192;2023-05-10T11:47:17;99651.23;;;22.18;31.49
76794;BME280;65745;50.278;18.192;2023-05-10T11:49:49;99654.64;;;21.98;32.09
76794;BME280;65745;50.278;18.192;2023-05-10T11:52:22;99650.77;;;21.74;31.69
76794;BME280;65745;50.278;18.192;2023-05-10T11:54:54;99652.78;;;21.71;32.03
76794;BME280;65745;50.278;18.192;2023-05-10T11:57:28;99649.64;;;21.52;31.92
76794;BME280;65745;50.278;18.192;2023-05-10T12:00:02;99646.19;;;21.44;32.57
76794;BME280;65745;50.278;18.192;2023-05-10T12:02:37;99650.91;;;21.75;32.32
76794;BME280;65745;50.278;18.192;2023-05-10T12:05:10;99652.38;;;22.02;32.36
76794;BME280;65745;50.278;18.192;2023-05-10T12:07:42;99648.88;;;22.35;31.97
76794;BME280;65745;50.278;18.192;2023-05-10T12:10:14;99649.59;;;22.62;31.85
76794;BME280;65745;50.278;18.192;2023-05-10T12:12:49;99649.04;;;22.58;31.79
76794;BME280;65745;50.278;18.192;2023-05-10T12:15:25;99652.75;;;22.19;31.94
76794;BME280;65745;50.278;18.192;2023-05-10T12:17:58;99651.33;;;22.14;32.43
76794;BME280;65745;50.278;18.192;2023-05-10T12:20:37;99646.73;;;23.15;31.76
76794;BME280;65745;50.278;18.192;2023-05-10T12:23:11;99645.61;;;24.11;30.16
76794;BME280;65745;50.278;18.192;2023-05-10T12:25:45;99642.55;;;24.82;29.72
76794;BME280;65745;50.278;18.192;2023-05-10T12:28:20;99639.73;;;25.19;28.35
76794;BME280;65745;50.278;18.192;2023-05-10T12:30:54;99639.57;;;25.50;28.63
76794;BME280;65745;50.278;18.192;2023-05-10T12:33:27;99636.16;;;25.83;28.35
76794;BME280;65745;50.278;18.192;2023-05-10T12:36:00;99638.80;;;26.35;27.72
76794;BME280;65745;50.278;18.192;2023-05-10T12:38:34;99636.04;;;26.76;26.61
76794;BME280;65745;50.278;18.192;2023-05-10T12:41:08;99629.45;;;27.01;26.78
76794;BME280;65745;50.278;18.192;2023-05-10T12:43:41;99630.20;;;27.21;26.71
76794;BME280;65745;50.278;18.192;2023-05-10T12:46:15;99636.02;;;26.80;26.30
76794;BME280;65745;50.278;18.192;2023-05-10T12:48:48;99634.46;;;25.96;26.65
76794;BME280;65745;50.278;18.192;2023-05-10T12:51:38;99630.14;;;25.04;27.76
76794;BME280;65745;50.278;18.192;2023-05-10T12:54:10;99631.75;;;24.32;28.27
76794;BME280;65745;50.278;18.192;2023-05-10T12:56:42;99629.25;;;23.98;28.32
76794;BME280;65745;50.278;18.192;2023-05-10T12:59:15;99627.31;;;23.85;28.82
76794;BME280;65745;50.278;18.192;2023-05-10T13:01:47;99623.61;;;23.76;28.82
76794;BME280;65745;50.278;18.192;2023-05-10T13:04:19;99620.13;;;23.75;29.25
76794;BME280;65745;50.278;18.192;2023-05-10T13:06:51;99615.50;;;24.12;29.01
76794;BME280;65745;50.278;18.192;2023-05-10T13:09:26;99610.77;;;24.33;29.65
76794;BME280;65745;50.278;18.192;2023-05-10T13:12:00;99618.00;;;24.11;29.70
76794;BME280;65745;50.278;18.192;2023-05-10T13:14:33;99617.63;;;23.61;29.38
76794;BME280;65745;50.278;18.192;2023-05-10T13:17:05;99613.96;;;23.08;30.19
76794;BME280;65745;50.278;18.192;2023-05-10T13:19:39;99612.64;;;22.80;30.27
76794;BME280;65745;50.278;18.192;2023-05-10T13:22:13;99614.06;;;22.64;30.51
76794;BME280;65745;50.278;18.192;2023-05-10T13:24:55;99611.05;;;22.43;30.88
76794;BME280;65745;50.278;18.192;2023-05-10T13:27:27;99607.52;;;22.38;31.07
76794;BME280;65745;50.278;18.192;2023-05-10T13:30:00;99604.13;;;22.35;31.85
76794;BME280;65745;50.278;18.192;2023-05-10T13:32:34;99602.52;;;22.42;32.27